createdAt,value
2017-11-04T00:01:12.503Z,27.25
2017-11-04T00:03:39.384Z,29.42
2017-11-04T00:06:07.481Z,28.67
2017-11-04T00:08:34.400Z,28.67
2017-11-04T00:11:01.220Z,28.02
2017-11-04T00:13:30.095Z,33.90
2017-11-04T00:15:58.460Z,32.45
2017-11-04T00:18:26.268Z,29.00
2017-11-04T00:20:53.905Z,29.67
2017-11-04T00:23:20.777Z,34.53
2017-11-04T00:25:48.401Z,31.87
2017-11-04T00:28:15.301Z,33.75
2017-11-04T00:30:42.175Z,32.53
2017-11-04T00:33:09.842Z,31.50
2017-11-04T00:35:36.736Z,29.30
2017-11-04T00:38:03.603Z,31.25
2017-11-04T00:40:30.541Z,32.97
2017-11-04T00:42:58.141Z,33.72
2017-11-04T00:45:25.028Z,28.60
2017-11-04T00:47:51.881Z,28.35
2017-11-04T00:50:18.744Z,30.40
2017-11-04T00:52:46.375Z,33.83
2017-11-04T00:55:13.225Z,31.23
2017-11-04T00:57:40.154Z,23.73
2017-11-04T01:00:07.029Z,25.50
2017-11-04T01:02:33.938Z,27.63
2017-11-04T01:05:00.811Z,29.55
2017-11-04T01:07:27.713Z,27.17
2017-11-04T01:09:54.588Z,29.17
2017-11-04T01:12:21.469Z,28.62
2017-11-04T01:14:48.339Z,27.60
2017-11-04T01:17:15.974Z,30.70
2017-11-04T01:19:42.989Z,27.23
2017-11-04T01:22:10.648Z,30.75
2017-11-04T01:24:37.530Z,30.75
2017-11-04T01:27:05.142Z,28.40
2017-11-04T01:29:32.065Z,29.75
2017-11-04T01:31:58.982Z,30.65
2017-11-04T01:34:25.868Z,30.30
2017-11-04T01:36:52.746Z,27.73
2017-11-04T01:39:20.366Z,29.08
2017-11-04T01:41:47.288Z,28.50
2017-11-04T01:44:14.261Z,29.48
2017-11-04T01:46:41.152Z,30.88
2017-11-04T01:49:08.050Z,31.45
2017-11-04T01:51:34.917Z,35.67
2017-11-04T01:54:01.463Z,32.35
2017-11-04T01:56:28.468Z,34.47
2017-11-04T01:58:56.102Z,34.25
2017-11-04T02:01:23.023Z,38.33
2017-11-04T02:03:49.965Z,34.38
2017-11-04T02:06:16.937Z,42.15
2017-11-04T02:08:44.631Z,33.28
2017-11-04T02:11:11.525Z,34.47
2017-11-04T02:13:38.420Z,30.30
2017-11-04T02:16:05.321Z,31.55
2017-11-04T02:18:32.238Z,34.80
2017-11-04T02:20:59.178Z,29.73
2017-11-04T02:23:26.086Z,32.90
2017-11-04T02:25:53.742Z,34.25
2017-11-04T02:28:20.675Z,31.80
2017-11-04T02:30:48.287Z,34.38
2017-11-04T02:33:15.169Z,31.77
2017-11-04T02:35:42.920Z,30.52
2017-11-04T02:38:09.817Z,31.02
2017-11-04T02:40:37.489Z,35.80
2017-11-04T02:43:04.492Z,34.78
2017-11-04T02:45:31.403Z,34.53
2017-11-04T02:47:58.255Z,31.27
2017-11-04T02:50:25.169Z,31.90
2017-11-04T02:52:52.052Z,29.40
2017-11-04T02:55:18.939Z,31.25
2017-11-04T02:57:45.835Z,35.63
2017-11-04T03:00:13.508Z,34.22
2017-11-04T03:02:41.131Z,37.33
2017-11-04T03:05:08.049Z,31.67
2017-11-04T03:07:34.968Z,34.50
2017-11-04T03:10:01.954Z,36.53
2017-11-04T03:12:28.841Z,38.15
2017-11-04T03:14:55.699Z,32.25
2017-11-04T03:17:22.551Z,37.22
2017-11-04T03:19:49.479Z,38.60
2017-11-04T03:22:16.432Z,34.13
2017-11-04T03:24:43.324Z,39.42
2017-11-04T03:27:10.214Z,36.55
2017-11-04T03:29:38.029Z,35.75
2017-11-04T03:32:04.961Z,36.70
2017-11-04T03:34:32.709Z,36.00
2017-11-04T03:36:59.630Z,34.90
2017-11-04T03:39:26.547Z,36.63
2017-11-04T03:41:53.484Z,31.45
2017-11-04T03:44:21.086Z,35.25
2017-11-04T03:46:47.966Z,33.08
2017-11-04T03:49:14.815Z,34.20
2017-11-04T03:51:41.672Z,33.50
2017-11-04T03:54:08.589Z,31.12
2017-11-04T03:56:35.465Z,34.70
2017-11-04T03:59:02.401Z,31.33
2017-11-04T04:01:29.283Z,35.90
2017-11-04T04:03:56.158Z,30.60
2017-11-04T04:06:23.051Z,28.80
2017-11-04T04:08:49.939Z,31.45
2017-11-04T04:11:16.817Z,30.83
2017-11-04T04:13:43.683Z,33.10
2017-11-04T04:16:10.553Z,38.13
2017-11-04T04:18:37.406Z,29.25
2017-11-04T04:21:04.301Z,39.28
2017-11-04T04:23:31.198Z,33.75
2017-11-04T04:25:58.063Z,36.15
2017-11-04T04:28:25.678Z,30.65
2017-11-04T04:30:52.569Z,37.22
2017-11-04T04:33:19.477Z,38.28
2017-11-04T04:35:47.119Z,33.45
2017-11-04T04:38:14.070Z,33.30
2017-11-04T04:40:41.009Z,33.50
2017-11-04T04:43:07.936Z,39.85
2017-11-04T04:45:34.892Z,30.50
2017-11-04T04:48:01.808Z,30.33
2017-11-04T04:50:28.768Z,34.15
2017-11-04T04:52:55.692Z,35.83
2017-11-04T04:55:22.581Z,33.03
2017-11-04T04:57:49.440Z,31.65
2017-11-04T05:00:16.378Z,33.28
2017-11-04T05:02:43.298Z,31.92
2017-11-04T05:05:10.171Z,35.83
2017-11-04T05:07:37.058Z,30.83
2017-11-04T05:10:03.952Z,30.75
2017-11-04T05:12:33.818Z,36.20
2017-11-04T05:15:00.682Z,33.45
2017-11-04T05:17:27.615Z,40.33
2017-11-04T05:19:54.502Z,40.38
2017-11-04T05:22:22.396Z,32.97
2017-11-04T05:24:50.010Z,34.40
2017-11-04T05:27:16.968Z,36.53
2017-11-04T05:29:43.821Z,39.33
2017-11-04T05:32:10.688Z,38.72
2017-11-04T05:34:37.558Z,43.15
2017-11-04T05:37:04.431Z,38.33
2017-11-04T05:39:31.325Z,39.22
2017-11-04T05:41:58.204Z,43.17
2017-11-04T05:44:25.109Z,36.60
2017-11-04T05:46:52.032Z,38.72
2017-11-04T05:49:18.903Z,37.95
2017-11-04T05:51:45.781Z,42.25
2017-11-04T05:54:12.654Z,37.72
2017-11-04T05:56:39.533Z,47.43
2017-11-04T05:59:06.465Z,46.28
2017-11-04T06:01:34.134Z,40.38
2017-11-04T06:04:01.788Z,37.78
2017-11-04T06:06:28.669Z,49.50
2017-11-04T06:08:55.540Z,41.47
2017-11-04T06:11:22.469Z,41.10
2017-11-04T06:13:49.434Z,39.05
2017-11-04T06:16:16.319Z,42.00
2017-11-04T06:18:43.193Z,38.65
2017-11-04T06:21:10.120Z,48.28
2017-11-04T06:23:37.017Z,44.95
2017-11-04T06:26:04.354Z,50.28
2017-11-04T06:28:32.042Z,51.33
2017-11-04T06:30:58.926Z,50.70
2017-11-04T06:33:25.810Z,47.43
2017-11-04T06:35:52.708Z,46.50
2017-11-04T06:38:19.862Z,49.90
2017-11-04T06:40:46.769Z,42.20
2017-11-04T06:43:13.646Z,53.40
2017-11-04T06:45:40.519Z,55.83
2017-11-04T06:48:07.398Z,55.57
2017-11-04T06:50:34.881Z,54.45
2017-11-04T06:53:01.766Z,48.87
2017-11-04T06:55:28.657Z,53.27
2017-11-04T06:57:56.280Z,56.87
2017-11-04T07:00:23.147Z,47.23
2017-11-04T07:02:50.036Z,45.70
2017-11-04T07:05:16.963Z,56.63
2017-11-04T07:07:43.836Z,44.37
2017-11-04T07:10:11.463Z,46.27
2017-11-04T07:12:38.351Z,43.37
2017-11-04T07:15:06.025Z,47.20
2017-11-04T07:17:32.906Z,41.60
2017-11-04T07:19:59.798Z,35.77
2017-11-04T07:22:31.995Z,46.83
2017-11-04T07:24:58.905Z,44.33
2017-11-04T07:27:25.776Z,50.90
2017-11-04T07:29:52.667Z,43.87
2017-11-04T07:32:19.553Z,53.33
2017-11-04T07:34:46.458Z,44.83
2017-11-04T07:37:13.395Z,51.07
2017-11-04T07:39:41.020Z,54.83
2017-11-04T07:42:08.072Z,50.60
2017-11-04T07:44:36.473Z,52.80
2017-11-04T07:47:03.394Z,49.00
2017-11-04T07:49:30.340Z,48.57
2017-11-04T07:51:57.276Z,48.27
2017-11-04T07:54:24.197Z,50.17
2017-11-04T07:56:51.091Z,49.20
2017-11-04T07:59:17.973Z,48.53
2017-11-04T08:01:44.824Z,46.27
2017-11-04T08:04:11.892Z,47.50
2017-11-04T08:06:38.806Z,47.30
2017-11-04T08:09:05.743Z,52.97
2017-11-04T08:11:32.634Z,60.13
2017-11-04T08:13:59.538Z,57.00
2017-11-04T08:16:26.408Z,57.30
2017-11-04T08:18:53.292Z,53.53
2017-11-04T08:21:20.905Z,53.03
2017-11-04T08:23:47.820Z,54.77
2017-11-04T08:26:14.725Z,64.40
2017-11-04T08:28:41.645Z,56.40
2017-11-04T08:31:08.573Z,55.17
2017-11-04T08:33:35.496Z,52.50
2017-11-04T08:36:05.353Z,49.03
2017-11-04T08:41:12.141Z,50.37
2017-11-04T08:43:39.163Z,46.07
2017-11-04T08:46:06.135Z,50.37
2017-11-04T08:48:33.130Z,52.73
2017-11-04T08:51:00.060Z,39.60
2017-11-04T08:53:26.992Z,44.33
2017-11-04T08:55:55.487Z,49.20
2017-11-04T08:58:22.381Z,42.77
2017-11-04T09:00:49.393Z,38.60
2017-11-04T09:03:16.265Z,40.50
2017-11-04T09:05:43.139Z,40.87
2017-11-04T09:10:51.785Z,37.43
2017-11-04T09:15:58.339Z,40.27
2017-11-04T09:18:25.227Z,39.53
2017-11-04T09:20:52.150Z,44.20
2017-11-04T09:25:55.762Z,37.40
2017-11-04T09:28:22.631Z,38.63
2017-11-04T09:30:52.389Z,37.87
2017-11-04T09:33:19.288Z,38.67
2017-11-04T09:35:46.181Z,37.57
2017-11-04T09:38:13.089Z,42.93
2017-11-04T09:40:40.768Z,40.43
2017-11-04T09:43:07.736Z,36.10
2017-11-04T09:45:34.687Z,35.10
2017-11-04T09:48:01.595Z,33.83
2017-11-04T09:50:28.541Z,34.30
2017-11-04T09:52:55.835Z,35.93
2017-11-04T09:55:22.742Z,35.20
2017-11-04T09:57:49.717Z,36.50
2017-11-04T10:00:16.628Z,36.40
2017-11-04T10:02:43.638Z,35.07
2017-11-04T10:05:10.625Z,37.07
2017-11-04T10:07:37.890Z,35.33
2017-11-04T10:10:04.824Z,33.77
2017-11-04T10:12:31.777Z,34.43
2017-11-04T10:14:58.677Z,36.07
2017-11-04T10:17:25.671Z,33.97
2017-11-04T10:19:52.614Z,32.80
2017-11-04T10:22:19.550Z,32.50
2017-11-04T10:24:46.454Z,36.57
2017-11-04T10:27:13.345Z,35.10
2017-11-04T10:29:40.258Z,35.53
2017-11-04T10:32:07.180Z,37.63
2017-11-04T10:34:34.111Z,28.73
2017-11-04T10:37:01.042Z,29.00
2017-11-04T10:39:27.919Z,32.50
2017-11-04T10:41:54.860Z,33.00
2017-11-04T10:44:21.736Z,34.53
2017-11-04T10:46:48.671Z,30.00
2017-11-04T10:49:15.539Z,31.77
2017-11-04T10:51:43.154Z,35.60
2017-11-04T10:54:10.178Z,34.87
2017-11-04T10:56:37.062Z,33.00
2017-11-04T10:59:03.946Z,30.07
2017-11-04T11:01:30.851Z,29.13
2017-11-04T11:03:57.764Z,30.00
2017-11-04T11:06:24.693Z,27.70
2017-11-04T11:08:51.551Z,29.90
2017-11-04T11:11:18.498Z,25.47
2017-11-04T11:13:45.412Z,29.63
2017-11-04T11:16:13.310Z,26.87
2017-11-04T11:18:40.163Z,28.70
2017-11-04T11:21:07.041Z,27.60
2017-11-04T11:23:33.923Z,27.87
2017-11-04T11:26:01.048Z,27.13
2017-11-04T11:28:27.956Z,26.97
2017-11-04T11:30:54.860Z,24.70
2017-11-04T11:33:21.749Z,22.03
2017-11-04T11:35:48.729Z,26.23
2017-11-04T11:38:15.632Z,27.53
2017-11-04T11:40:42.639Z,22.33
2017-11-04T11:43:09.677Z,23.40
2017-11-04T11:45:36.638Z,23.60
2017-11-04T11:48:04.277Z,21.80
2017-11-04T11:50:31.173Z,20.50
2017-11-04T11:52:58.101Z,23.30
2017-11-04T11:55:25.003Z,24.73
2017-11-04T11:57:51.833Z,23.80
2017-11-04T12:00:19.477Z,22.80
2017-11-04T12:02:46.327Z,19.87
2017-11-04T12:05:13.209Z,21.70
2017-11-04T12:07:40.067Z,20.60
2017-11-04T12:10:06.908Z,22.90
2017-11-04T12:12:33.758Z,19.60
2017-11-04T12:15:00.665Z,21.37
2017-11-04T12:17:27.584Z,19.33
2017-11-04T12:19:55.300Z,20.80
2017-11-04T12:22:23.169Z,19.60
2017-11-04T12:24:50.050Z,18.83
2017-11-04T12:27:18.672Z,20.83
2017-11-04T12:29:45.585Z,19.83
2017-11-04T12:32:12.482Z,19.97
2017-11-04T12:34:39.395Z,17.77
2017-11-04T12:37:07.073Z,18.50
2017-11-04T12:39:36.914Z,18.47
2017-11-04T12:42:04.186Z,19.57
2017-11-04T12:44:32.086Z,18.97
2017-11-04T12:46:59.888Z,21.87
2017-11-04T12:49:28.452Z,19.40
2017-11-04T12:51:56.241Z,18.73
2017-11-04T12:54:26.961Z,18.17
2017-11-04T12:56:53.816Z,20.00
2017-11-04T12:59:20.975Z,18.70
2017-11-04T13:01:47.840Z,19.50
2017-11-04T13:04:14.684Z,20.20
2017-11-04T13:09:34.477Z,16.23
2017-11-04T13:12:01.343Z,16.85
2017-11-04T13:14:28.189Z,16.43
2017-11-04T13:16:57.510Z,18.43
2017-11-04T13:19:28.058Z,17.33
2017-11-04T13:21:54.924Z,17.80
2017-11-04T13:24:21.810Z,16.60
2017-11-04T13:26:48.684Z,16.47
2017-11-04T13:29:15.577Z,16.43
2017-11-04T13:31:44.917Z,15.77
2017-11-04T13:34:15.956Z,17.57
2017-11-04T13:36:44.875Z,21.87
2017-11-04T13:39:16.638Z,17.23
2017-11-04T13:41:45.976Z,15.00
2017-11-04T13:44:12.860Z,17.23
2017-11-04T13:46:39.722Z,17.57
2017-11-04T13:49:06.593Z,16.00
2017-11-04T13:51:33.512Z,16.30
2017-11-04T13:54:01.314Z,15.87
2017-11-04T13:59:03.695Z,16.47
2017-11-04T14:01:35.197Z,14.90
2017-11-04T14:04:04.570Z,17.50
2017-11-04T14:06:31.794Z,14.73
2017-11-04T14:08:58.675Z,16.67
2017-11-04T14:11:25.560Z,16.40
2017-11-04T14:13:53.749Z,18.80
2017-11-04T14:16:20.652Z,20.30
2017-11-04T14:18:48.806Z,23.70
2017-11-04T14:21:16.034Z,18.60
2017-11-04T14:23:43.128Z,27.33
2017-11-04T14:28:54.776Z,20.07
2017-11-04T14:31:22.377Z,18.30
2017-11-04T14:33:50.403Z,16.67
2017-11-04T14:36:17.316Z,16.03
2017-11-04T14:38:44.313Z,15.20
2017-11-04T14:41:11.179Z,16.27
2017-11-04T14:43:38.057Z,14.40
2017-11-04T14:46:04.936Z,14.30
2017-11-04T14:48:31.780Z,15.57
2017-11-04T14:50:58.632Z,20.03
2017-11-04T14:53:26.927Z,14.63
2017-11-04T14:55:53.793Z,16.80
2017-11-04T14:58:20.734Z,17.30
2017-11-04T15:00:49.974Z,15.57
2017-11-04T15:03:18.056Z,15.53
2017-11-04T15:05:44.979Z,15.40
2017-11-04T15:08:11.882Z,14.53
2017-11-04T15:10:38.930Z,15.00
2017-11-04T15:13:06.544Z,16.20
2017-11-04T15:15:34.186Z,16.03
2017-11-04T15:18:01.784Z,15.10
2017-11-04T15:20:29.383Z,13.03
2017-11-04T15:22:56.280Z,12.33
2017-11-04T15:25:23.182Z,13.63
2017-11-04T15:27:50.055Z,13.20
2017-11-04T15:30:16.910Z,13.50
2017-11-04T15:32:43.751Z,14.20
2017-11-04T15:35:11.357Z,11.67
2017-11-04T15:37:38.287Z,13.03
2017-11-04T15:40:05.184Z,14.47
2017-11-04T15:42:32.140Z,12.03
2017-11-04T15:44:59.027Z,11.67
2017-11-04T15:47:25.927Z,11.90
2017-11-04T15:49:53.538Z,11.30
2017-11-04T15:52:20.640Z,11.20
2017-11-04T15:54:48.909Z,11.37
2017-11-04T15:57:15.897Z,9.10
2017-11-04T15:59:42.744Z,11.77
2017-11-04T16:02:09.610Z,9.90
2017-11-04T16:04:36.579Z,11.00
2017-11-04T16:07:03.452Z,12.00
2017-11-04T16:09:30.404Z,10.23
2017-11-04T16:11:57.276Z,12.83
2017-11-04T16:14:24.130Z,8.90
2017-11-04T16:16:50.985Z,9.90
2017-11-04T16:19:17.839Z,10.73
2017-11-04T16:21:44.715Z,8.37
2017-11-04T16:24:11.563Z,10.13
2017-11-04T16:26:38.451Z,13.23
2017-11-04T16:29:05.335Z,10.20
2017-11-04T16:31:32.935Z,8.67
2017-11-04T16:33:59.777Z,10.37
2017-11-04T16:36:27.386Z,9.83
2017-11-04T16:38:54.250Z,9.37
2017-11-04T16:41:21.118Z,10.60
2017-11-04T16:43:47.976Z,10.53
2017-11-04T16:46:14.845Z,9.53
2017-11-04T16:48:41.719Z,10.70
2017-11-04T16:51:08.585Z,10.80
2017-11-04T16:53:35.423Z,9.93
2017-11-04T16:56:03.319Z,10.93
2017-11-04T16:58:30.478Z,10.73
2017-11-04T17:00:57.432Z,11.10
2017-11-04T17:03:24.362Z,10.50
2017-11-04T17:05:51.979Z,11.50
2017-11-04T17:08:18.858Z,10.90
2017-11-04T17:10:45.697Z,10.97
2017-11-04T17:13:12.558Z,11.70
2017-11-04T17:15:39.439Z,13.10
2017-11-04T17:18:06.322Z,11.17
2017-11-04T17:20:33.194Z,13.03
2017-11-04T17:23:00.114Z,12.03
2017-11-04T17:25:27.029Z,14.10
2017-11-04T17:27:53.894Z,12.20
2017-11-04T17:30:20.768Z,12.10
2017-11-04T17:32:48.402Z,12.63
2017-11-04T17:35:15.309Z,12.33
2017-11-04T17:37:42.935Z,11.90
2017-11-04T17:40:09.814Z,11.77
2017-11-04T17:42:36.706Z,13.30
2017-11-04T17:45:04.308Z,13.23
2017-11-04T17:47:31.238Z,13.90
2017-11-04T17:49:58.243Z,12.80
2017-11-04T17:52:25.173Z,13.80
2017-11-04T17:54:52.868Z,14.40
2017-11-04T17:57:31.086Z,13.47
2017-11-04T17:59:58.807Z,14.60
2017-11-04T18:02:25.695Z,13.80
2017-11-04T18:04:53.124Z,14.83
2017-11-04T18:07:21.626Z,12.93
2017-11-04T18:09:48.514Z,14.73
2017-11-04T18:12:15.384Z,15.33
2017-11-04T18:14:42.488Z,14.97
2017-11-04T18:17:10.106Z,18.90
2017-11-04T18:19:38.430Z,16.53
2017-11-04T18:22:06.388Z,16.90
2017-11-04T18:24:33.273Z,16.63
2017-11-04T18:27:00.137Z,19.20
2017-11-04T18:29:27.001Z,18.83
2017-11-04T18:31:53.907Z,18.47
2017-11-04T18:34:21.504Z,19.00
2017-11-04T18:36:48.376Z,17.00
2017-11-04T18:39:15.338Z,18.10
2017-11-04T18:41:42.271Z,19.13
2017-11-04T18:44:09.894Z,19.20
2017-11-04T18:46:36.810Z,18.77
2017-11-04T18:49:03.869Z,19.93
2017-11-04T18:51:30.809Z,18.17
2017-11-04T18:53:58.453Z,20.90
2017-11-04T18:56:25.581Z,18.37
2017-11-04T18:58:53.230Z,19.93
2017-11-04T19:01:20.549Z,16.23
2017-11-04T19:03:47.556Z,17.60
2017-11-04T19:06:15.050Z,17.67
2017-11-04T19:08:43.069Z,18.47
2017-11-04T19:11:10.424Z,17.93
2017-11-04T19:13:38.239Z,15.90
2017-11-04T19:16:05.473Z,18.73
2017-11-04T19:18:32.811Z,17.33
2017-11-04T19:21:00.459Z,14.63
2017-11-04T19:23:29.398Z,14.60
2017-11-04T19:25:57.147Z,14.20
2017-11-04T19:28:24.142Z,14.90
2017-11-04T19:30:51.831Z,14.40
2017-11-04T19:33:18.801Z,15.23
2017-11-04T19:35:46.015Z,14.17
2017-11-04T19:38:14.076Z,13.93
2017-11-04T19:40:41.916Z,14.87
2017-11-04T19:43:09.894Z,14.10
2017-11-04T19:45:36.925Z,15.27
2017-11-04T19:48:06.506Z,14.67
2017-11-04T19:50:33.550Z,14.63
2017-11-04T19:53:01.086Z,14.40
2017-11-04T19:55:29.013Z,14.57
2017-11-04T19:57:56.180Z,14.50
2017-11-04T20:00:23.408Z,15.30
2017-11-04T20:02:50.442Z,16.27
2017-11-04T20:05:17.481Z,13.77
2017-11-04T20:07:45.853Z,14.63
2017-11-04T20:10:12.903Z,12.13
2017-11-04T20:12:41.006Z,13.50
2017-11-04T20:15:08.725Z,12.47
2017-11-04T20:17:35.645Z,13.53
2017-11-04T20:20:02.580Z,12.90
2017-11-04T20:22:29.585Z,13.43
2017-11-04T20:24:57.322Z,13.03
2017-11-04T20:27:24.261Z,16.07
2017-11-04T20:29:51.240Z,12.47
2017-11-04T20:32:18.761Z,13.60
2017-11-04T20:34:45.916Z,14.40
2017-11-04T20:37:13.059Z,12.73
2017-11-04T20:39:41.002Z,12.33
2017-11-04T20:42:08.679Z,13.03
2017-11-04T20:44:38.258Z,13.63
2017-11-04T20:47:05.532Z,13.30
2017-11-04T20:49:34.559Z,16.37
2017-11-04T20:52:01.484Z,15.03
2017-11-04T20:54:29.121Z,16.00
2017-11-04T20:56:56.358Z,12.20
2017-11-04T20:59:23.320Z,13.40
2017-11-04T21:01:50.176Z,13.93
2017-11-04T21:04:17.542Z,13.73
2017-11-04T21:06:45.226Z,15.33
2017-11-04T21:09:13.233Z,13.47
2017-11-04T21:11:41.815Z,14.20
2017-11-04T21:14:09.702Z,13.10
2017-11-04T21:16:36.659Z,15.10
2017-11-04T21:19:03.630Z,15.43
2017-11-04T21:21:30.633Z,12.67
2017-11-04T21:23:58.441Z,13.30
2017-11-04T21:26:25.622Z,15.90
2017-11-04T21:28:52.600Z,11.13
2017-11-04T21:31:19.485Z,10.67
2017-11-04T21:33:46.358Z,11.23
2017-11-04T21:36:13.950Z,11.30
2017-11-04T21:38:40.900Z,11.50
2017-11-04T21:41:07.773Z,11.03
2017-11-04T21:43:34.819Z,11.53
2017-11-04T21:46:02.148Z,10.83
2017-11-04T21:48:29.243Z,10.80
2017-11-04T21:50:56.130Z,10.70
2017-11-04T21:53:23.033Z,10.20
2017-11-04T21:55:50.082Z,10.80
2017-11-04T21:58:17.757Z,10.40
2017-11-04T22:00:45.519Z,12.07
2017-11-04T22:03:12.579Z,11.40
2017-11-04T22:05:39.504Z,9.43
2017-11-04T22:08:06.487Z,10.20
2017-11-04T22:10:33.520Z,9.60
2017-11-04T22:13:00.442Z,12.67
2017-11-04T22:15:27.301Z,9.40
2017-11-04T22:17:54.218Z,9.57
2017-11-04T22:20:21.119Z,9.97
2017-11-04T22:22:47.975Z,8.60
2017-11-04T22:25:14.851Z,9.40
2017-11-04T22:27:41.710Z,10.13
2017-11-04T22:30:08.585Z,10.73
2017-11-04T22:32:35.429Z,9.63
2017-11-04T22:35:02.390Z,10.83
2017-11-04T22:37:29.236Z,9.93
2017-11-04T22:39:56.067Z,10.43
2017-11-04T22:42:22.966Z,10.00
2017-11-04T22:44:49.868Z,11.20
2017-11-04T22:47:17.524Z,10.10
2017-11-04T22:49:44.418Z,10.20
2017-11-04T22:52:12.061Z,10.50
2017-11-04T22:54:38.908Z,9.97
2017-11-04T22:57:05.811Z,9.30
2017-11-04T22:59:33.394Z,12.57
2017-11-04T23:02:00.963Z,10.30
2017-11-04T23:04:27.842Z,11.90
2017-11-04T23:06:54.722Z,10.07
2017-11-04T23:09:22.325Z,10.40
2017-11-04T23:11:49.175Z,9.80
2017-11-04T23:14:16.086Z,9.83
2017-11-04T23:16:42.966Z,10.53
2017-11-04T23:19:09.836Z,10.83
2017-11-04T23:21:36.812Z,10.47
2017-11-04T23:24:03.786Z,10.10
2017-11-04T23:26:30.654Z,10.30
2017-11-04T23:28:57.557Z,11.90
2017-11-04T23:31:24.427Z,12.80
2017-11-04T23:33:51.275Z,10.43
2017-11-04T23:36:18.164Z,11.53
2017-11-04T23:38:45.039Z,13.73
2017-11-04T23:41:11.930Z,11.37
2017-11-04T23:43:38.791Z,11.47
2017-11-04T23:46:05.627Z,11.73
2017-11-04T23:48:32.534Z,10.00
2017-11-04T23:50:59.387Z,11.63
2017-11-04T23:53:26.251Z,11.23
2017-11-04T23:55:53.160Z,11.33
2017-11-04T23:58:21.412Z,12.40
